createdAt,value
2019-01-17T00:02:26.008Z,99071.36
2019-01-17T00:04:55.502Z,99065.80
2019-01-17T00:07:32.918Z,99059.76
2019-01-17T00:10:07.167Z,99061.80
2019-01-17T00:12:38.139Z,99059.83
2019-01-17T00:15:26.583Z,99053.19
2019-01-17T00:18:03.498Z,99045.59
2019-01-17T00:20:37.001Z,99057.48
2019-01-17T00:23:06.127Z,99066.18
2019-01-17T00:25:55.573Z,99063.53
2019-01-17T00:28:42.866Z,99054.02
2019-01-17T00:31:16.747Z,99060.55
2019-01-17T00:34:03.985Z,99057.75
2019-01-17T00:36:34.984Z,99051.75
2019-01-17T00:39:11.695Z,99046.79
2019-01-17T00:41:51.546Z,99045.06
2019-01-17T00:44:41.125Z,99038.42
2019-01-17T00:47:12.371Z,99043.20
2019-01-17T00:49:49.279Z,99044.65
2019-01-17T00:52:20.247Z,99052.70
2019-01-17T00:54:51.603Z,99046.73
2019-01-17T00:57:28.071Z,99046.36
2019-01-17T01:00:05.019Z,99042.48
2019-01-17T01:02:36.004Z,99029.16
2019-01-17T01:05:23.597Z,99045.85
2019-01-17T01:08:10.981Z,99040.09
2019-01-17T01:10:41.975Z,99041.36
2019-01-17T01:13:18.613Z,99036.77
2019-01-17T01:15:54.492Z,99037.28
2019-01-17T01:18:25.448Z,99046.03
2019-01-17T01:21:14.539Z,99044.77
2019-01-17T01:23:45.760Z,99033.92
2019-01-17T01:26:32.916Z,99034.81
2019-01-17T01:29:17.412Z,99038.11
2019-01-17T01:31:56.892Z,99025.94
2019-01-17T01:34:30.760Z,99016.18
2019-01-17T01:37:04.609Z,99021.84
2019-01-17T01:39:44.618Z,99020.52
2019-01-17T01:42:19.346Z,99018.89
2019-01-17T01:44:56.842Z,99013.94
2019-01-17T01:47:45.534Z,99009.59
2019-01-17T01:50:22.025Z,99001.03
2019-01-17T01:53:05.765Z,99006.25
2019-01-17T01:55:35.114Z,98992.52
2019-01-17T01:58:04.819Z,99007.17
2019-01-17T02:00:34.126Z,98998.84
2019-01-17T02:03:03.459Z,99011.97
2019-01-17T02:05:32.826Z,99006.44
2019-01-17T02:08:02.151Z,99004.63
2019-01-17T02:10:31.512Z,99013.85
2019-01-17T02:13:01.343Z,99006.90
2019-01-17T02:15:31.059Z,99019.29
2019-01-17T02:18:00.745Z,99018.25
2019-01-17T02:20:30.355Z,99022.74
2019-01-17T02:22:59.714Z,99027.50
2019-01-17T02:25:29.353Z,99032.54
2019-01-17T02:28:18.143Z,99027.73
2019-01-17T02:30:47.523Z,99037.46
2019-01-17T02:33:16.852Z,99046.09
2019-01-17T02:35:46.209Z,99035.23
2019-01-17T02:38:15.540Z,99047.64
2019-01-17T02:40:44.863Z,99038.28
2019-01-17T02:43:14.510Z,99042.44
2019-01-17T02:45:44.252Z,99037.46
2019-01-17T02:48:13.548Z,99040.11
2019-01-17T02:50:43.154Z,99042.75
2019-01-17T02:53:12.491Z,99045.58
2019-01-17T02:55:41.827Z,99036.33
2019-01-17T02:58:11.137Z,99049.86
2019-01-17T03:00:40.744Z,99041.58
2019-01-17T03:03:10.071Z,99043.73
2019-01-17T03:05:39.382Z,99051.86
2019-01-17T03:08:08.712Z,99047.55
2019-01-17T03:10:38.350Z,99038.78
2019-01-17T03:13:07.651Z,99047.55
2019-01-17T03:15:37.022Z,99046.22
2019-01-17T03:18:06.363Z,99046.06
2019-01-17T03:20:36.083Z,99046.38
2019-01-17T03:23:05.439Z,99042.59
2019-01-17T03:25:34.755Z,99052.69
2019-01-17T03:28:04.094Z,99042.41
2019-01-17T03:30:33.449Z,99044.91
2019-01-17T03:33:02.756Z,99044.41
2019-01-17T03:35:32.084Z,99042.58
2019-01-17T03:38:01.434Z,99044.22
2019-01-17T03:40:31.082Z,99033.47
2019-01-17T03:43:00.671Z,99037.45
2019-01-17T03:45:30.374Z,99041.76
2019-01-17T03:47:59.978Z,99028.03
2019-01-17T03:50:29.285Z,99030.19
2019-01-17T03:52:58.901Z,99040.59
2019-01-17T03:55:28.705Z,99034.30
2019-01-17T03:57:58.454Z,99034.95
2019-01-17T04:00:28.122Z,99036.80
2019-01-17T04:02:57.467Z,99036.62
2019-01-17T04:05:26.796Z,99030.67
2019-01-17T04:07:56.112Z,99018.77
2019-01-17T04:10:25.837Z,99016.42
2019-01-17T04:12:55.194Z,99016.63
2019-01-17T04:15:24.847Z,99008.84
2019-01-17T04:17:54.758Z,98995.45
2019-01-17T04:20:24.672Z,98989.67
2019-01-17T04:22:54.051Z,98980.22
2019-01-17T04:25:23.682Z,98968.50
2019-01-17T04:27:53.002Z,98951.30
2019-01-17T04:30:22.356Z,98976.11
2019-01-17T04:32:51.688Z,98970.65
2019-01-17T04:35:21.013Z,98968.65
2019-01-17T04:37:50.397Z,98961.55
2019-01-17T04:40:19.729Z,98965.67
2019-01-17T04:42:49.032Z,98969.48
2019-01-17T04:45:18.459Z,98965.17
2019-01-17T04:47:47.797Z,98953.75
2019-01-17T04:50:17.296Z,98961.53
2019-01-17T04:52:46.607Z,98961.69
2019-01-17T04:55:15.942Z,98945.82
2019-01-17T04:57:45.593Z,98963.20
2019-01-17T05:00:20.568Z,98954.57
2019-01-17T05:02:49.885Z,98964.83
2019-01-17T05:05:19.235Z,98969.31
2019-01-17T05:07:48.574Z,98971.77
2019-01-17T05:10:21.414Z,98965.66
2019-01-17T05:12:51.009Z,98974.61
2019-01-17T05:15:20.673Z,98988.98
2019-01-17T05:17:50.059Z,98987.00
2019-01-17T05:20:19.775Z,98988.97
2019-01-17T05:22:49.654Z,98988.33
2019-01-17T05:25:19.066Z,98992.95
2019-01-17T05:27:48.460Z,98993.92
2019-01-17T05:30:19.315Z,98989.47
2019-01-17T05:32:48.693Z,99002.05
2019-01-17T05:35:18.020Z,99008.32
2019-01-17T05:37:47.696Z,99004.50
2019-01-17T05:40:19.437Z,99009.64
2019-01-17T05:42:48.782Z,99010.47
2019-01-17T05:45:18.121Z,99009.81
2019-01-17T05:47:47.404Z,99014.92
2019-01-17T05:50:18.710Z,99017.05
2019-01-17T05:52:48.010Z,99016.39
2019-01-17T05:55:20.089Z,99018.03
2019-01-17T05:57:48.839Z,99014.22
2019-01-17T06:00:20.640Z,99024.34
2019-01-17T06:02:50.063Z,99029.14
2019-01-17T06:05:19.405Z,99025.50
2019-01-17T06:07:48.698Z,99034.63
2019-01-17T06:10:18.035Z,99036.27
2019-01-17T06:12:47.404Z,99032.64
2019-01-17T06:15:18.640Z,99037.10
2019-01-17T06:17:47.982Z,99034.29
2019-01-17T06:20:18.151Z,99029.66
2019-01-17T06:22:47.774Z,99035.13
2019-01-17T06:25:17.096Z,99033.97
2019-01-17T06:27:46.412Z,99041.07
2019-01-17T06:30:16.591Z,99038.27
2019-01-17T06:32:45.917Z,99034.11
2019-01-17T06:35:15.346Z,99034.63
2019-01-17T06:37:45.003Z,99032.97
2019-01-17T06:40:29.495Z,99040.73
2019-01-17T06:42:58.859Z,99035.27
2019-01-17T06:45:28.460Z,99041.89
2019-01-17T06:47:57.770Z,99044.53
2019-01-17T06:50:27.368Z,99049.83
2019-01-17T06:52:57.068Z,99051.97
2019-01-17T06:55:26.694Z,99048.36
2019-01-17T06:57:56.019Z,99053.47
2019-01-17T07:00:25.361Z,99056.80
2019-01-17T07:02:54.661Z,99057.63
2019-01-17T07:05:24.064Z,99047.87
2019-01-17T07:07:53.718Z,99069.69
2019-01-17T07:10:23.499Z,99061.37
2019-01-17T07:12:53.111Z,99058.73
2019-01-17T07:15:22.727Z,99062.56
2019-01-17T07:17:52.041Z,99064.04
2019-01-17T07:20:21.399Z,99053.77
2019-01-17T07:22:51.082Z,99059.08
2019-01-17T07:25:20.745Z,99065.02
2019-01-17T07:27:50.435Z,99058.11
2019-01-17T07:30:23.338Z,99062.09
2019-01-17T07:32:52.946Z,99062.57
2019-01-17T07:35:22.479Z,99065.38
2019-01-17T07:37:51.863Z,99060.76
2019-01-17T07:40:21.898Z,99051.98
2019-01-17T07:42:51.202Z,99074.64
2019-01-17T07:45:26.923Z,99068.02
2019-01-17T07:47:56.240Z,99071.98
2019-01-17T07:50:25.856Z,99076.64
2019-01-17T07:52:55.469Z,99084.73
2019-01-17T07:55:25.088Z,99078.61
2019-01-17T07:57:54.784Z,99080.59
2019-01-17T08:00:25.181Z,99077.96
2019-01-17T08:02:54.525Z,99078.11
2019-01-17T08:05:24.235Z,99074.64
2019-01-17T08:07:53.867Z,99084.89
2019-01-17T08:10:23.259Z,99080.91
2019-01-17T08:12:52.953Z,99088.37
2019-01-17T08:15:22.306Z,99091.50
2019-01-17T08:17:51.947Z,99088.19
2019-01-17T08:20:25.112Z,99090.16
2019-01-17T08:22:54.433Z,99086.20
2019-01-17T08:25:24.046Z,99088.84
2019-01-17T08:27:53.800Z,99088.34
2019-01-17T08:30:26.467Z,99098.62
2019-01-17T08:32:55.787Z,99092.80
2019-01-17T08:35:25.111Z,99093.16
2019-01-17T08:37:54.787Z,99093.84
2019-01-17T08:40:28.342Z,99096.78
2019-01-17T08:42:59.539Z,99094.13
2019-01-17T08:45:29.185Z,99095.64
2019-01-17T08:47:58.799Z,99099.77
2019-01-17T08:50:28.195Z,99096.14
2019-01-17T08:52:57.493Z,99101.59
2019-01-17T08:55:27.096Z,99092.33
2019-01-17T08:57:56.700Z,99110.70
2019-01-17T09:00:27.504Z,99104.23
2019-01-17T09:02:57.146Z,99107.38
2019-01-17T09:05:26.752Z,99112.03
2019-01-17T09:07:56.058Z,99115.33
2019-01-17T09:10:28.740Z,99115.16
2019-01-17T09:12:58.450Z,99116.13
2019-01-17T09:15:33.392Z,99124.77
2019-01-17T09:18:02.701Z,99121.78
2019-01-17T09:20:32.012Z,99127.55
2019-01-17T09:23:01.347Z,99121.60
2019-01-17T09:25:31.002Z,99119.59
2019-01-17T09:28:00.691Z,99114.30
2019-01-17T09:30:30.281Z,99119.27
2019-01-17T09:32:59.862Z,99118.44
2019-01-17T09:35:29.521Z,99107.81
2019-01-17T09:37:59.108Z,99106.34
2019-01-17T09:40:28.720Z,99115.25
2019-01-17T09:42:58.302Z,99114.25
2019-01-17T09:45:27.624Z,99109.99
2019-01-17T09:47:57.251Z,99106.69
2019-01-17T09:50:26.997Z,99107.66
2019-01-17T09:52:56.572Z,99107.47
2019-01-17T09:55:25.944Z,99105.83
2019-01-17T09:57:55.275Z,99106.02
2019-01-17T10:00:29.363Z,99111.80
2019-01-17T10:02:58.713Z,99107.03
2019-01-17T10:05:28.312Z,99109.63
2019-01-17T10:07:57.885Z,99095.05
2019-01-17T10:10:27.389Z,99103.17
2019-01-17T10:12:57.242Z,99114.45
2019-01-17T10:15:37.800Z,99104.98
2019-01-17T10:18:21.123Z,99105.64
2019-01-17T10:21:28.089Z,99096.09
2019-01-17T10:24:13.849Z,99092.09
2019-01-17T10:26:59.359Z,99094.41
2019-01-17T10:29:41.990Z,99090.94
2019-01-17T10:32:34.125Z,99096.73
2019-01-17T10:35:20.166Z,99086.47
2019-01-17T10:38:18.138Z,99081.36
2019-01-17T10:41:10.586Z,99081.16
2019-01-17T10:43:59.428Z,99064.89
2019-01-17T10:46:45.452Z,99072.83
2019-01-17T10:49:53.726Z,99070.94
2019-01-17T10:53:00.790Z,99072.81
2019-01-17T10:55:43.937Z,99056.60
2019-01-17T10:58:27.227Z,99061.10
2019-01-17T11:01:16.203Z,99054.30
2019-01-17T11:04:38.590Z,99058.45
2019-01-17T11:07:36.204Z,99038.08
2019-01-17T11:10:47.495Z,99041.99
2019-01-17T11:13:52.720Z,99042.30
2019-01-17T11:16:41.708Z,99027.33
2019-01-17T11:19:33.895Z,99027.56
2019-01-17T11:22:25.187Z,99025.34
2019-01-17T11:25:24.804Z,99025.47
2019-01-17T11:28:24.235Z,99023.93
2019-01-17T11:31:20.537Z,99030.70
2019-01-17T11:34:15.510Z,99026.23
2019-01-17T11:37:19.538Z,99020.00
2019-01-17T11:40:23.645Z,99016.66
2019-01-17T11:43:18.837Z,99022.16
2019-01-17T11:46:01.570Z,99022.89
2019-01-17T11:48:51.061Z,99011.98
2019-01-17T11:51:34.515Z,99015.00
2019-01-17T11:54:08.718Z,99001.69
2019-01-17T11:57:00.975Z,99004.04
2019-01-17T11:59:41.315Z,98992.50
2019-01-17T12:02:39.274Z,98991.64
2019-01-17T12:05:07.474Z,98987.39
2019-01-17T12:07:36.797Z,99003.42
2019-01-17T12:10:07.901Z,99008.53
2019-01-17T12:12:37.357Z,99008.92
2019-01-17T12:15:09.186Z,98998.14
2019-01-17T12:17:38.776Z,99008.23
2019-01-17T12:20:09.318Z,98999.60
2019-01-17T12:22:38.943Z,98993.39
2019-01-17T12:25:08.555Z,98986.69
2019-01-17T12:27:42.563Z,98992.59
2019-01-17T12:30:12.698Z,98980.75
2019-01-17T12:32:42.027Z,98996.97
2019-01-17T12:35:12.016Z,98997.54
2019-01-17T12:37:41.364Z,98992.14
2019-01-17T12:40:12.765Z,98992.34
2019-01-17T12:42:42.404Z,98983.64
2019-01-17T12:45:11.746Z,98967.41
2019-01-17T12:47:41.063Z,98978.18
2019-01-17T12:50:15.051Z,98975.89
2019-01-17T12:52:44.414Z,98972.55
2019-01-17T12:55:13.802Z,98976.41
2019-01-17T12:57:43.427Z,98969.38
2019-01-17T13:00:16.963Z,98964.05
2019-01-17T13:02:46.295Z,98966.10
2019-01-17T13:05:16.066Z,98960.62
2019-01-17T13:07:45.734Z,98955.65
2019-01-17T13:10:15.732Z,98964.50
2019-01-17T13:12:45.056Z,98964.08
2019-01-17T13:15:14.391Z,98957.48
2019-01-17T13:17:46.593Z,98951.11
2019-01-17T13:20:16.899Z,98950.09
2019-01-17T13:22:46.486Z,98956.13
2019-01-17T13:25:18.692Z,98948.49
2019-01-17T13:27:48.123Z,98941.77
2019-01-17T13:30:22.772Z,98943.09
2019-01-17T13:32:52.373Z,98941.13
2019-01-17T13:35:21.952Z,98941.20
2019-01-17T13:37:51.539Z,98934.97
2019-01-17T13:40:22.285Z,98937.58
2019-01-17T13:42:51.863Z,98933.46
2019-01-17T13:45:21.813Z,98936.02
2019-01-17T13:47:51.412Z,98945.73
2019-01-17T13:50:21.022Z,98940.63
2019-01-17T13:52:50.675Z,98940.56
2019-01-17T13:55:21.623Z,98938.95
2019-01-17T13:57:51.016Z,98936.48
2019-01-17T14:00:25.527Z,98933.77
2019-01-17T14:02:54.927Z,98931.61
2019-01-17T14:05:24.277Z,98930.62
2019-01-17T14:07:53.990Z,98919.08
2019-01-17T14:10:24.161Z,98929.30
2019-01-17T14:12:54.226Z,98937.91
2019-01-17T14:15:27.917Z,98939.61
2019-01-17T14:17:59.047Z,98934.85
2019-01-17T14:20:28.645Z,98933.23
2019-01-17T14:22:58.905Z,98932.45
2019-01-17T14:25:30.047Z,98925.01
2019-01-17T14:28:01.153Z,98922.28
2019-01-17T14:30:34.787Z,98921.48
2019-01-17T14:33:04.146Z,98929.19
2019-01-17T14:35:33.630Z,98930.07
2019-01-17T14:38:03.275Z,98931.88
2019-01-17T14:40:32.665Z,98929.89
2019-01-17T14:43:02.570Z,98923.03
2019-01-17T14:45:32.245Z,98917.32
2019-01-17T14:48:02.506Z,98913.08
2019-01-17T14:50:32.861Z,98917.94
2019-01-17T14:53:02.192Z,98914.20
2019-01-17T14:55:31.574Z,98912.64
2019-01-17T14:58:00.886Z,98902.60
2019-01-17T15:00:32.548Z,98903.93
2019-01-17T15:03:02.172Z,98910.39
2019-01-17T15:05:31.776Z,98896.38
2019-01-17T15:08:01.338Z,98899.08
2019-01-17T15:10:35.359Z,98899.42
2019-01-17T15:13:04.763Z,98899.66
2019-01-17T15:15:34.416Z,98900.65
2019-01-17T15:18:03.934Z,98901.03
2019-01-17T15:20:33.555Z,98901.03
2019-01-17T15:23:03.336Z,98905.19
2019-01-17T15:25:33.007Z,98907.58
2019-01-17T15:28:02.587Z,98909.41
2019-01-17T15:30:32.185Z,98901.63
2019-01-17T15:33:01.565Z,98904.79
2019-01-17T15:35:30.890Z,98909.81
2019-01-17T15:38:00.460Z,98909.11
2019-01-17T15:40:31.242Z,98901.19
2019-01-17T15:43:00.864Z,98903.72
2019-01-17T15:45:30.189Z,98906.03
2019-01-17T15:47:59.606Z,98908.69
2019-01-17T15:50:29.018Z,98899.29
2019-01-17T15:52:58.360Z,98905.20
2019-01-17T15:55:28.242Z,98902.92
2019-01-17T15:57:57.591Z,98922.45
2019-01-17T16:00:29.890Z,98918.97
2019-01-17T16:02:59.269Z,98919.33
2019-01-17T16:05:28.591Z,98915.86
2019-01-17T16:07:57.919Z,98912.89
2019-01-17T16:10:27.368Z,98925.11
2019-01-17T16:12:56.680Z,98925.10
2019-01-17T16:15:26.671Z,98922.62
2019-01-17T16:17:55.983Z,98919.13
2019-01-17T16:20:25.581Z,98929.89
2019-01-17T16:22:54.917Z,98926.60
2019-01-17T16:25:24.247Z,98927.25
2019-01-17T16:27:53.598Z,98925.13
2019-01-17T16:30:29.520Z,98926.44
2019-01-17T16:32:59.080Z,98919.67
2019-01-17T16:35:28.682Z,98921.98
2019-01-17T16:37:58.006Z,98919.52
2019-01-17T16:40:27.307Z,98912.23
2019-01-17T16:42:56.619Z,98906.61
2019-01-17T16:45:26.212Z,98913.91
2019-01-17T16:47:55.793Z,98913.42
2019-01-17T16:50:26.125Z,98913.56
2019-01-17T16:52:55.463Z,98923.82
2019-01-17T16:55:25.076Z,98931.10
2019-01-17T16:57:54.766Z,98920.39
2019-01-17T17:00:37.548Z,98929.47
2019-01-17T17:03:06.883Z,98931.47
2019-01-17T17:05:36.186Z,98926.82
2019-01-17T17:08:05.524Z,98920.68
2019-01-17T17:10:35.127Z,98932.78
2019-01-17T17:13:04.455Z,98924.17
2019-01-17T17:15:34.037Z,98941.02
2019-01-17T17:18:03.416Z,98926.17
2019-01-17T17:20:32.764Z,98924.84
2019-01-17T17:23:02.347Z,98922.55
2019-01-17T17:25:31.962Z,98925.50
2019-01-17T17:28:01.585Z,98930.80
2019-01-17T17:30:30.862Z,98928.64
2019-01-17T17:33:00.492Z,98922.72
2019-01-17T17:35:29.847Z,98913.31
2019-01-17T17:37:59.161Z,98918.41
2019-01-17T17:40:29.834Z,98937.77
2019-01-17T17:42:59.174Z,98929.98
2019-01-17T17:45:28.537Z,98917.27
2019-01-17T17:47:57.905Z,98919.85
2019-01-17T17:50:27.461Z,98930.97
2019-01-17T17:52:56.824Z,98921.19
2019-01-17T17:55:26.505Z,98916.91
2019-01-17T17:58:01.936Z,98899.73
2019-01-17T18:00:44.824Z,98901.70
2019-01-17T18:03:14.149Z,98903.02
2019-01-17T18:05:43.504Z,98858.31
2019-01-17T18:08:12.817Z,98923.55
2019-01-17T18:10:42.233Z,98925.03
2019-01-17T18:13:11.810Z,98932.48
2019-01-17T18:15:41.139Z,98926.36
2019-01-17T18:18:10.443Z,98923.41
2019-01-17T18:20:40.590Z,98931.50
2019-01-17T18:23:10.203Z,98931.84
2019-01-17T18:25:39.520Z,98938.76
2019-01-17T18:28:09.108Z,98932.97
2019-01-17T18:30:38.403Z,98921.74
2019-01-17T18:33:09.656Z,98932.97
2019-01-17T18:35:44.750Z,98927.19
2019-01-17T18:38:18.519Z,98929.84
2019-01-17T18:40:51.242Z,98922.23
2019-01-17T18:43:26.391Z,98928.17
2019-01-17T18:46:04.738Z,98925.03
2019-01-17T18:48:48.751Z,98930.81
2019-01-17T18:51:20.894Z,98948.34
2019-01-17T18:53:50.241Z,98927.67
2019-01-17T18:56:19.616Z,98940.41
2019-01-17T18:58:48.962Z,98961.56
2019-01-17T19:01:18.304Z,98958.28
2019-01-17T19:03:47.959Z,98968.52
2019-01-17T19:06:17.562Z,98975.78
2019-01-17T19:08:47.177Z,98982.58
2019-01-17T19:11:16.828Z,98998.45
2019-01-17T19:13:46.172Z,99018.60
2019-01-17T19:16:26.931Z,99033.98
2019-01-17T19:19:03.004Z,99050.53
2019-01-17T19:21:52.536Z,99057.33
2019-01-17T19:24:26.603Z,99065.95
2019-01-17T19:27:00.258Z,99070.95
2019-01-17T19:29:48.182Z,99080.61
2019-01-17T19:32:22.173Z,99088.42
2019-01-17T19:34:51.537Z,99105.43
2019-01-17T19:37:21.128Z,99112.00
2019-01-17T19:39:52.497Z,99117.27
2019-01-17T19:42:24.576Z,99134.88
2019-01-17T19:44:55.287Z,99142.59
2019-01-17T19:47:24.953Z,99146.13
2019-01-17T19:49:54.672Z,99157.62
2019-01-17T19:52:24.434Z,99163.42
2019-01-17T19:54:54.114Z,99163.32
2019-01-17T19:57:23.523Z,99162.51
2019-01-17T19:59:53.213Z,99178.64
2019-01-17T20:02:23.280Z,99185.02
2019-01-17T20:04:53.191Z,99187.34
2019-01-17T20:07:22.523Z,99190.38
2019-01-17T20:09:51.902Z,99191.25
2019-01-17T20:12:21.355Z,99198.86
2019-01-17T20:14:51.025Z,99203.35
2019-01-17T20:17:20.645Z,99208.84
2019-01-17T20:19:50.261Z,99218.16
2019-01-17T20:22:19.987Z,99228.09
2019-01-17T20:24:49.646Z,99235.56
2019-01-17T20:27:18.965Z,99243.12
2019-01-17T20:29:48.538Z,99242.73
2019-01-17T20:32:18.855Z,99246.37
2019-01-17T20:34:48.292Z,99251.66
2019-01-17T20:37:17.896Z,99258.66
2019-01-17T20:39:47.291Z,99267.65
2019-01-17T20:42:16.694Z,99267.65
2019-01-17T20:44:46.334Z,99270.98
2019-01-17T20:47:19.094Z,99276.44
2019-01-17T20:49:58.157Z,99280.94
2019-01-17T20:52:29.291Z,99284.41
2019-01-17T20:55:07.535Z,99291.59
2019-01-17T20:57:45.389Z,99293.58
2019-01-17T21:00:33.825Z,99274.14
2019-01-17T21:03:05.881Z,99295.20
2019-01-17T21:05:35.534Z,99294.30
2019-01-17T21:08:04.957Z,99292.62
2019-01-17T21:10:34.623Z,99299.23
2019-01-17T21:13:04.344Z,99263.52
2019-01-17T21:15:33.977Z,99306.10
2019-01-17T21:18:03.620Z,99313.86
2019-01-17T21:20:33.242Z,99317.59
2019-01-17T21:23:03.059Z,99318.48
2019-01-17T21:25:32.402Z,99318.13
2019-01-17T21:28:02.094Z,99316.08
2019-01-17T21:30:31.427Z,99316.33
2019-01-17T21:33:06.545Z,99318.72
2019-01-17T21:35:31.876Z,99324.97
2019-01-17T21:38:01.229Z,99317.35
2019-01-17T21:40:30.936Z,99319.98
2019-01-17T21:43:00.626Z,99320.78
2019-01-17T21:45:30.253Z,99332.81
2019-01-17T21:47:59.627Z,99332.30
2019-01-17T21:50:34.005Z,99325.27
2019-01-17T21:53:03.350Z,99330.66
2019-01-17T21:55:32.972Z,99332.45
2019-01-17T21:58:02.331Z,99338.64
2019-01-17T22:00:31.955Z,99351.69
2019-01-17T22:03:01.305Z,99361.97
2019-01-17T22:05:30.879Z,99366.28
2019-01-17T22:08:00.473Z,99361.84
2019-01-17T22:10:29.822Z,99362.33
2019-01-17T22:12:59.517Z,99360.40
2019-01-17T22:15:29.481Z,99331.73
2019-01-17T22:17:59.386Z,99362.61
2019-01-17T22:20:29.195Z,99367.97
2019-01-17T22:22:58.898Z,99380.85
2019-01-17T22:25:28.247Z,99370.32
2019-01-17T22:27:57.890Z,99377.09
2019-01-17T22:30:31.184Z,99377.73
2019-01-17T22:33:00.557Z,99381.20
2019-01-17T22:35:30.124Z,99374.20
2019-01-17T22:37:59.432Z,99381.20
2019-01-17T22:40:29.005Z,99376.01
2019-01-17T22:42:58.311Z,99384.59
2019-01-17T22:45:31.705Z,99389.66
2019-01-17T22:48:01.079Z,99396.56
2019-01-17T22:50:30.965Z,99409.20
2019-01-17T22:53:00.584Z,99407.45
2019-01-17T22:55:30.178Z,99415.77
2019-01-17T22:57:59.528Z,99417.39
2019-01-17T23:00:52.608Z,99422.02
2019-01-17T23:03:29.695Z,99422.10
2019-01-17T23:05:59.063Z,99414.83
2019-01-17T23:08:28.776Z,99411.64
2019-01-17T23:10:58.105Z,99423.91
2019-01-17T23:13:27.623Z,99430.42
2019-01-17T23:15:56.976Z,99432.71
2019-01-17T23:18:26.319Z,99426.45
2019-01-17T23:20:55.706Z,99435.52
2019-01-17T23:23:25.015Z,99434.97
2019-01-17T23:25:54.607Z,99445.38
2019-01-17T23:28:23.948Z,99444.59
2019-01-17T23:30:53.544Z,99444.33
2019-01-17T23:33:22.848Z,99450.00
2019-01-17T23:35:52.461Z,99454.86
2019-01-17T23:38:21.752Z,99453.83
2019-01-17T23:40:51.351Z,99452.55
2019-01-17T23:43:20.931Z,99455.14
2019-01-17T23:45:50.560Z,99453.19
2019-01-17T23:48:20.138Z,99454.91
2019-01-17T23:50:49.747Z,99455.55
2019-01-17T23:53:19.050Z,99466.75
2019-01-17T23:55:48.756Z,99468.70
2019-01-17T23:58:18.090Z,99472.02
